Aérodrome :
LOGIN :

S'inscrire | Disclaimer

   EN    FR    IT 

 










Légende :    VFR   VFR Marginal   IFR   IFR Intensif   IFR Très Intensif
Visi : 
Plafond : 
>= 8 km
>= 3000ft
5 à 8 km
1000 à 3000 ft
1500m à 5 km
500 à 1000 ft
800 à 1500m
200 à 500 ft
< 800m
< 200 ft
Symboles :   Orages  Brouillard  Fortes neiges  Fortes précipitations  Vent > 20 kt
SIGMETs :   Divers  Orages  Givrage  Turbulence  Onde Orograph.  Cendres Volcan.







- Altitude de l'aérodrome : 1674 ft
- Code IATA : BRN


LSZB - Bern Belp

DERNIER METAR :
  • 210920Z 12003KT 080V190 CAVOK 21/15 Q1016 NOSIG

METARs EXPIRÉS :
  • 210850Z 12003KT 080V170 CAVOK 20/15 Q1017 NOSIG
  • 210820Z 12004KT 9999 FEW080 BKN150 19/15 Q1017 NOSIG
  • 210750Z VRB04KT 9999 FEW080 SCT190 20/15 Q1016 NOSIG
  • 210720Z VRB04KT CAVOK 17/17 Q1016 NOSIG
  • 210650Z VRB02KT CAVOK 15/15 Q1017 NOSIG
  • 210620Z VRB01KT CAVOK 13/13 Q1017 NOSIG

TAF AMD TAF LSZB
Valide du 21 à 09h jusqu'au 21 à 18h UTC


210912Z 2109/2118 VRB03KT CAVOK
TEMPO 2109/2118 9999 FEW060
TEMPO 2113/2118 28012G25KT SHRA BKN070
ATIS : +41 22 417 40 76
Pas de NOTAMs connus pour ce terrain.



MET'MAP, la Météo Aéronautique d'un coup d'oeil ! - Copyright ORBIFLY Décembre 2007 - Disclaimer

ORBIFLY MET'MAP TEAM :

Programmation & Développement : Alexandra Zaïnal
Conception & Développement : Baudouin d'Aumeries
Co-Programmation & Développement : Marc-Olivier Méhu
Soutien technique & logistique : Manuel Goepfert

Contact : metmap@orbifly.com




SOURCES & CREDITS :

   NOAA